Greenbush, Michigan
Current Conditions -  °F | °C
As of 3:34 PM on Saturday 25 Oct 2014 (Local Time) from KOSC Reporting Station
Clear Clear  
Wind Chill: 65°   Ceiling: Unl
Heat Index: 65°   Visibility: 10mi
Dew Point: 33°   Wind: 22mph
Humidity: 31%   Direction: 280°W
Pressure: 29.63"   Gusts: 31mph
Location:  44.59°N, 83.32°W
Report Text: KOSC 251934Z AUTO 28019G27KT 10SM CLR 18/00 A2963 RMK AO2 T01830006
Loading
Personal Weather Stations






























Interactive Weather Map
Tropical Storm Tracking
New forecast layout! Learn more

10-Day Weather Forecast

Advertisements
Track Severe Weather on mobile